Terminal Aerodrome Forecast
Issued by NWS

Home | Current Version | Previous Version | Text Only | Print | Product List | Glossary On
Versions: 1 2 3 4 5 6 7 8 9 10 11 12 13 14 15 16 17 18 19 20 21 22 23 24 25 26
000
FTUS43 KOAX 231227 AAA
TAFSNY
TAF AMD
KSNY 231227Z 2312/2412 10007KT 1SM BR OVC005
      TEMPO 2312/2315 1/2SM FG OVC003
     FM231500 12013KT 4SM BR BKN003 OVC007
     FM232000 12015G22KT 5SM BR VCTS BKN007 OVC015CB
     FM240300 11012KT 2SM -RA BR OVC003=

USA.gov is the U.S. government's official web portal to all federal, state and local government web resources and services.